createdAt,value
2023-03-23T00:00:15.495Z,7.800
2023-03-23T00:01:15.798Z,8.300
2023-03-23T00:02:15.085Z,8.500
2023-03-23T00:03:16.259Z,8.000
2023-03-23T00:04:15.599Z,8.000
2023-03-23T00:05:15.812Z,7.500
2023-03-23T00:06:15.887Z,8.000
2023-03-23T00:07:15.369Z,7.800
2023-03-23T00:08:14.995Z,8.700
2023-03-23T00:09:18.055Z,8.400
2023-03-23T00:10:15.286Z,8.300
2023-03-23T00:11:16.161Z,8.000
2023-03-23T00:12:15.930Z,8.100
2023-03-23T00:13:15.124Z,7.900
2023-03-23T00:14:15.223Z,7.600
2023-03-23T00:15:15.773Z,8.000
2023-03-23T00:16:21.601Z,7.600
2023-03-23T00:20:15.895Z,7.700
2023-03-23T00:21:15.065Z,7.500
2023-03-23T00:22:15.741Z,8.500
2023-03-23T00:23:14.871Z,7.300
2023-03-23T00:24:15.118Z,8.200
2023-03-23T00:25:15.744Z,7.500
2023-03-23T00:26:15.729Z,8.200
2023-03-23T00:27:20.432Z,7.500
2023-03-23T00:30:15.929Z,7.400
2023-03-23T00:31:15.152Z,7.800
2023-03-23T00:32:15.599Z,8.000
2023-03-23T00:33:16.132Z,7.700
2023-03-23T00:34:15.537Z,7.200
2023-03-23T00:35:14.914Z,7.800
2023-03-23T00:36:15.553Z,6.900
2023-03-23T00:37:15.219Z,7.100
2023-03-23T00:38:15.960Z,7.600
2023-03-23T00:39:16.055Z,8.200
2023-03-23T00:40:15.455Z,6.900
2023-03-23T00:41:16.568Z,8.100
2023-03-23T00:42:17.034Z,7.100
2023-03-23T00:43:15.248Z,7.200
2023-03-23T00:45:15.741Z,6.800
2023-03-23T00:46:15.385Z,7.600
2023-03-23T00:47:15.818Z,7.600
2023-03-23T00:48:15.539Z,7.300
2023-03-23T00:49:16.198Z,7.700
2023-03-23T00:50:16.319Z,7.200
2023-03-23T00:51:15.369Z,7.600
2023-03-23T00:52:15.777Z,7.600
2023-03-23T00:53:15.417Z,7.300
2023-03-23T00:54:15.785Z,7.200
2023-03-23T00:55:15.214Z,6.900
2023-03-23T00:56:16.057Z,8.000
2023-03-23T00:57:15.624Z,7.400
2023-03-23T00:58:15.204Z,7.900
2023-03-23T00:59:15.528Z,8.400
2023-03-23T01:00:23.532Z,8.500
2023-03-23T01:03:15.524Z,7.900
2023-03-23T01:04:16.164Z,8.400
2023-03-23T01:05:16.054Z,8.000
2023-03-23T01:07:15.180Z,8.000
2023-03-23T01:08:15.640Z,9.100
2023-03-23T01:09:14.960Z,8.100
2023-03-23T01:10:15.401Z,8.600
2023-03-23T01:11:15.830Z,7.500
2023-03-23T01:12:15.285Z,8.200
2023-03-23T01:13:15.937Z,9.000
2023-03-23T01:14:15.837Z,8.400
2023-03-23T01:15:15.053Z,8.900
2023-03-23T01:16:21.069Z,7.900
2023-03-23T01:18:15.474Z,8.100
2023-03-23T01:19:15.697Z,9.400
2023-03-23T01:20:15.161Z,8.600
2023-03-23T01:21:15.624Z,8.900
2023-03-23T01:22:15.880Z,8.300
2023-03-23T01:23:15.765Z,8.200
2023-03-23T01:24:15.253Z,8.900
2023-03-23T01:25:16.109Z,8.900
2023-03-23T01:26:15.280Z,8.500
2023-03-23T01:27:15.920Z,8.400
2023-03-23T01:28:15.496Z,9.200
2023-03-23T01:29:15.472Z,8.900
2023-03-23T01:30:15.710Z,8.600
2023-03-23T01:31:17.847Z,8.100
2023-03-23T01:34:15.135Z,8.600
2023-03-23T01:35:19.535Z,8.000
2023-03-23T01:37:15.505Z,8.400
2023-03-23T01:38:15.768Z,8.000
2023-03-23T01:39:18.365Z,8.900
2023-03-23T01:42:15.626Z,7.900
2023-03-23T01:43:15.097Z,7.600
2023-03-23T01:44:15.395Z,8.100
2023-03-23T01:45:15.853Z,7.200
2023-03-23T01:46:16.453Z,7.700
2023-03-23T01:47:16.438Z,7.500
2023-03-23T01:48:15.069Z,8.200
2023-03-23T01:49:15.740Z,8.700
2023-03-23T01:50:15.730Z,7.700
2023-03-23T01:52:18.240Z,7.300
2023-03-23T01:53:15.425Z,7.900
2023-03-23T01:54:15.848Z,6.900
2023-03-23T01:55:15.313Z,7.700
2023-03-23T01:56:16.185Z,7.900
2023-03-23T01:57:15.360Z,7.100
2023-03-23T01:58:15.024Z,7.800
2023-03-23T01:59:15.273Z,7.000
2023-03-23T02:00:19.644Z,7.400
2023-03-23T02:03:19.953Z,7.400
2023-03-23T02:05:15.961Z,7.100
2023-03-23T02:06:15.631Z,6.900
2023-03-23T02:07:15.185Z,7.200
2023-03-23T02:08:15.496Z,6.500
2023-03-23T02:09:28.569Z,7.900
2023-03-23T02:11:23.690Z,7.400
2023-03-23T02:13:16.645Z,7.300
2023-03-23T02:14:15.901Z,7.300
2023-03-23T02:15:16.588Z,7.400
2023-03-23T02:16:16.506Z,7.500
2023-03-23T02:17:16.793Z,7.600
2023-03-23T02:18:16.490Z,7.000
2023-03-23T02:19:17.087Z,7.400
2023-03-23T02:20:16.494Z,7.400
2023-03-23T02:21:17.048Z,7.300
2023-03-23T02:22:16.484Z,7.300
2023-03-23T02:23:16.998Z,7.300
2023-03-23T02:24:16.321Z,7.400
2023-03-23T02:25:16.781Z,7.500
2023-03-23T02:26:16.363Z,6.900
2023-03-23T02:27:17.304Z,7.600
2023-03-23T02:28:21.037Z,6.800
2023-03-23T02:29:16.844Z,7.300
2023-03-23T02:31:16.915Z,6.500
2023-03-23T02:33:16.701Z,7.100
2023-03-23T02:34:16.580Z,7.000
2023-03-23T02:35:17.035Z,6.800
2023-03-23T02:36:16.485Z,7.600
2023-03-23T02:37:16.901Z,6.600
2023-03-23T02:38:16.504Z,6.900
2023-03-23T02:39:16.840Z,6.500
2023-03-23T02:40:16.485Z,6.800
2023-03-23T02:41:17.017Z,6.800
2023-03-23T02:42:18.726Z,6.300
2023-03-23T02:44:16.893Z,6.500
2023-03-23T02:45:16.556Z,5.900
2023-03-23T02:46:17.729Z,6.200
2023-03-23T02:47:16.702Z,6.500
2023-03-23T02:48:16.361Z,5.800
2023-03-23T02:49:17.609Z,6.500
2023-03-23T02:50:16.177Z,6.300
2023-03-23T02:51:16.476Z,5.900
2023-03-23T02:52:19.872Z,5.800
2023-03-23T02:54:17.144Z,6.600
2023-03-23T02:55:16.422Z,6.800
2023-03-23T02:56:16.567Z,5.800
2023-03-23T02:57:15.944Z,5.700
2023-03-23T02:58:16.891Z,5.700
2023-03-23T02:59:16.199Z,5.600
2023-03-23T03:00:17.124Z,5.800
2023-03-23T03:02:17.320Z,5.300
2023-03-23T03:03:16.436Z,5.300
2023-03-23T03:04:17.808Z,5.400
2023-03-23T03:05:17.480Z,5.800
2023-03-23T03:06:18.101Z,4.900
2023-03-23T03:07:17.350Z,5.400
2023-03-23T03:08:17.257Z,4.800
2023-03-23T03:09:16.640Z,5.900
2023-03-23T03:10:20.336Z,5.800
2023-03-23T03:12:16.171Z,5.400
2023-03-23T03:13:17.110Z,4.800
2023-03-23T03:14:16.841Z,4.900
2023-03-23T03:15:16.981Z,4.800
2023-03-23T03:16:16.628Z,5.400
2023-03-23T03:17:15.917Z,5.200
2023-03-23T03:18:16.473Z,5.300
2023-03-23T03:19:19.773Z,5.000
2023-03-23T03:20:17.177Z,5.400
2023-03-23T03:21:18.288Z,5.100
2023-03-23T03:22:17.220Z,4.700
2023-03-23T03:23:16.612Z,5.100
2023-03-23T03:24:16.803Z,5.300
2023-03-23T03:25:24.868Z,4.900
2023-03-23T03:28:16.477Z,4.700
2023-03-23T03:29:15.808Z,4.600
2023-03-23T03:30:16.276Z,4.300
2023-03-23T03:31:17.083Z,4.900
2023-03-23T03:32:16.581Z,4.200
2023-03-23T03:33:16.991Z,4.800
2023-03-23T03:34:16.471Z,4.600
2023-03-23T03:35:17.890Z,4.500
2023-03-23T03:36:16.864Z,5.100
2023-03-23T03:37:16.492Z,4.000
2023-03-23T03:38:17.493Z,4.000
2023-03-23T03:39:16.838Z,4.600
2023-03-23T03:40:16.581Z,4.100
2023-03-23T03:41:17.397Z,4.000
2023-03-23T03:42:17.134Z,4.500
2023-03-23T03:43:16.833Z,4.100
2023-03-23T03:44:16.669Z,4.300
2023-03-23T03:45:16.028Z,4.000
2023-03-23T03:46:17.029Z,3.800
2023-03-23T03:47:16.276Z,4.100
2023-03-23T03:48:17.500Z,3.900
2023-03-23T03:50:17.048Z,3.900
2023-03-23T03:51:16.719Z,4.600
2023-03-23T03:53:16.096Z,4.000
2023-03-23T03:54:16.449Z,4.100
2023-03-23T03:55:17.373Z,4.400
2023-03-23T03:56:16.728Z,4.700
2023-03-23T03:58:16.419Z,4.300
2023-03-23T03:59:28.689Z,4.000
2023-03-23T04:01:19.384Z,3.600
2023-03-23T04:03:17.750Z,4.500
2023-03-23T04:04:17.621Z,4.500
2023-03-23T04:05:17.518Z,4.200
2023-03-23T04:06:18.552Z,4.100
2023-03-23T04:07:17.861Z,4.100
2023-03-23T04:08:27.144Z,3.500
2023-03-23T04:09:25.627Z,3.700
2023-03-23T04:10:32.527Z,4.200
2023-03-23T04:13:20.834Z,4.000
2023-03-23T04:14:20.449Z,4.000
2023-03-23T04:16:34.053Z,3.800
2023-03-23T04:18:28.813Z,3.700
2023-03-23T04:19:26.605Z,4.000
2023-03-23T04:20:31.588Z,3.900
2023-03-23T04:22:26.373Z,3.800
2023-03-23T04:23:32.321Z,4.000
2023-03-23T04:24:56.459Z,4.400
2023-03-23T04:26:41.232Z,3.600
2023-03-23T04:27:38.876Z,3.900
2023-03-23T04:28:40.664Z,3.700
2023-03-23T04:29:40.328Z,3.700
2023-03-23T04:30:39.456Z,3.400
2023-03-23T04:31:43.965Z,3.700
2023-03-23T04:32:41.131Z,3.700
2023-03-23T04:33:55.701Z,3.600
2023-03-23T04:37:00.009Z,3.900
2023-03-23T04:38:49.462Z,3.700
2023-03-23T04:39:49.869Z,3.800
2023-03-23T04:40:49.073Z,4.300
2023-03-23T04:41:49.261Z,4.300
2023-03-23T04:42:49.465Z,4.100
2023-03-23T04:43:49.750Z,4.200
2023-03-23T04:44:49.066Z,3.700
2023-03-23T04:45:49.397Z,4.100
2023-03-23T04:46:49.697Z,4.200
2023-03-23T04:47:48.931Z,4.200
2023-03-23T04:48:49.194Z,4.200
2023-03-23T04:49:49.874Z,4.300
2023-03-23T04:50:49.108Z,4.400
2023-03-23T04:51:49.672Z,4.400
2023-03-23T04:52:52.240Z,4.000
2023-03-23T04:54:48.864Z,3.800
2023-03-23T04:55:49.081Z,4.400
2023-03-23T04:56:49.584Z,3.900
2023-03-23T04:57:49.899Z,4.200
2023-03-23T04:58:50.088Z,4.300
2023-03-23T04:59:49.281Z,4.200
2023-03-23T05:00:49.920Z,4.600
2023-03-23T05:01:53.993Z,3.800
2023-03-23T05:03:49.547Z,4.300
2023-03-23T05:04:49.861Z,4.500
2023-03-23T05:05:49.190Z,4.200
2023-03-23T05:06:49.494Z,4.000
2023-03-23T05:07:58.314Z,4.200
2023-03-23T05:08:49.569Z,3.700
2023-03-23T05:09:48.821Z,4.200
2023-03-23T05:10:54.073Z,3.700
2023-03-23T05:13:49.864Z,4.200
2023-03-23T05:14:55.125Z,3.900
2023-03-23T05:16:49.481Z,4.000
2023-03-23T05:17:49.733Z,4.000
2023-03-23T05:18:48.974Z,3.400
2023-03-23T05:19:49.202Z,4.000
2023-03-23T05:20:49.428Z,4.600
2023-03-23T05:21:50.773Z,4.300
2023-03-23T05:22:48.948Z,4.200
2023-03-23T05:23:49.200Z,4.300
2023-03-23T05:24:49.361Z,3.900
2023-03-23T05:25:49.588Z,3.900
2023-03-23T05:26:51.128Z,4.200
2023-03-23T05:27:49.296Z,4.300
2023-03-23T05:28:49.708Z,3.800
2023-03-23T05:29:50.028Z,4.300
2023-03-23T05:30:49.384Z,3.800
2023-03-23T05:31:49.715Z,4.300
2023-03-23T05:32:48.926Z,4.200
2023-03-23T05:33:49.189Z,4.100
2023-03-23T05:34:49.497Z,4.000
2023-03-23T05:35:50.143Z,3.700
2023-03-23T05:36:49.398Z,3.700
2023-03-23T05:37:49.638Z,3.900
2023-03-23T05:38:48.917Z,4.000
2023-03-23T05:39:49.137Z,4.000
2023-03-23T05:40:49.341Z,4.100
2023-03-23T05:41:54.343Z,4.000
2023-03-23T05:42:49.570Z,3.800
2023-03-23T05:43:49.821Z,4.000
2023-03-23T05:44:52.578Z,4.200
2023-03-23T05:45:49.706Z,4.100
2023-03-23T05:47:49.285Z,3.900
2023-03-23T05:48:49.904Z,4.200
2023-03-23T05:49:49.116Z,3.400
2023-03-23T05:50:49.389Z,3.800
2023-03-23T05:51:49.668Z,3.800
2023-03-23T05:52:48.792Z,3.700
2023-03-23T05:53:49.636Z,3.900
2023-03-23T05:54:48.928Z,4.000
2023-03-23T05:55:49.149Z,4.100
2023-03-23T05:56:49.640Z,3.600
2023-03-23T05:57:48.816Z,3.600
2023-03-23T05:58:49.281Z,3.800
2023-03-23T05:59:49.996Z,4.000
2023-03-23T06:00:49.584Z,3.700
2023-03-23T06:01:54.033Z,3.800
2023-03-23T06:03:49.906Z,4.000
2023-03-23T06:04:49.710Z,3.300
2023-03-23T06:05:48.994Z,3.400
2023-03-23T06:06:49.558Z,3.800
2023-03-23T06:07:49.790Z,3.600
2023-03-23T06:08:49.037Z,3.500
2023-03-23T06:09:50.062Z,4.200
2023-03-23T06:10:49.253Z,3.800
2023-03-23T06:11:49.465Z,4.100
2023-03-23T06:12:49.737Z,4.100
2023-03-23T06:13:48.957Z,3.800
2023-03-23T06:14:49.441Z,3.800
2023-03-23T06:15:49.723Z,3.900
2023-03-23T06:16:48.892Z,4.000
2023-03-23T06:17:49.117Z,3.900
2023-03-23T06:18:49.345Z,4.300
2023-03-23T06:19:49.571Z,4.900
2023-03-23T06:20:51.058Z,4.300
2023-03-23T06:22:49.636Z,6.100
2023-03-23T06:23:48.853Z,6.200
2023-03-23T06:24:49.184Z,4.800
2023-03-23T06:25:56.138Z,4.100
2023-03-23T06:27:51.844Z,4.300
2023-03-23T06:28:49.168Z,4.400
2023-03-23T06:29:49.389Z,4.600
2023-03-23T06:30:49.611Z,3.900
2023-03-23T06:31:49.849Z,4.100
2023-03-23T06:32:49.001Z,4.200
2023-03-23T06:33:49.315Z,4.200
2023-03-23T06:34:49.537Z,4.100
2023-03-23T06:35:49.837Z,4.000
2023-03-23T06:36:49.094Z,3.900
2023-03-23T06:37:49.277Z,3.600
2023-03-23T06:38:49.505Z,3.800
2023-03-23T06:39:49.742Z,4.200
2023-03-23T06:40:48.969Z,3.800
2023-03-23T06:41:49.202Z,4.300
2023-03-23T06:42:49.422Z,4.200
2023-03-23T06:43:49.714Z,3.800
2023-03-23T06:44:48.853Z,3.600
2023-03-23T06:45:49.689Z,3.800
2023-03-23T06:46:48.893Z,4.200
2023-03-23T06:47:49.344Z,3.700
2023-03-23T06:48:49.860Z,3.900
2023-03-23T06:49:49.328Z,3.700
2023-03-23T06:50:49.620Z,3.700
2023-03-23T06:51:48.832Z,3.700
2023-03-23T06:52:49.105Z,4.100
2023-03-23T06:53:49.360Z,4.400
2023-03-23T06:54:49.660Z,4.500
2023-03-23T06:55:48.863Z,4.300
2023-03-23T06:56:49.097Z,4.400
2023-03-23T06:57:49.340Z,4.200
2023-03-23T06:58:49.808Z,4.500
2023-03-23T06:59:48.990Z,4.100
2023-03-23T07:00:49.353Z,4.000
2023-03-23T07:01:49.824Z,4.400
2023-03-23T07:02:49.029Z,4.000
2023-03-23T07:03:49.312Z,5.200
2023-03-23T07:04:49.557Z,4.500
2023-03-23T07:05:49.841Z,5.100
2023-03-23T07:06:49.113Z,5.800
2023-03-23T07:07:49.671Z,5.000
2023-03-23T07:08:48.886Z,4.700
2023-03-23T07:09:59.041Z,5.200
2023-03-23T07:12:49.681Z,4.500
2023-03-23T07:13:48.866Z,4.800
2023-03-23T07:14:49.103Z,4.500
2023-03-23T07:15:49.320Z,4.600
2023-03-23T07:16:49.643Z,5.000
2023-03-23T07:17:48.828Z,4.400
2023-03-23T07:18:49.105Z,4.100
2023-03-23T07:19:49.608Z,4.600
2023-03-23T07:20:50.145Z,3.900
2023-03-23T07:21:49.272Z,4.200
2023-03-23T07:22:50.164Z,4.000
2023-03-23T07:23:49.388Z,4.000
2023-03-23T07:24:49.584Z,4.600
2023-03-23T07:25:49.788Z,4.000
2023-03-23T07:26:48.987Z,4.000
2023-03-23T07:27:49.224Z,4.300
2023-03-23T07:28:49.469Z,4.300
2023-03-23T07:29:49.713Z,4.500
2023-03-23T07:30:48.897Z,5.200
2023-03-23T07:31:49.137Z,4.400
2023-03-23T07:32:49.405Z,4.500
2023-03-23T07:33:49.618Z,4.000
2023-03-23T07:34:48.822Z,4.100
2023-03-23T07:35:49.204Z,4.400
2023-03-23T07:36:49.708Z,3.900
2023-03-23T07:37:48.957Z,3.600
2023-03-23T07:38:49.185Z,4.000
2023-03-23T07:39:49.365Z,4.500
2023-03-23T07:40:49.801Z,4.200
2023-03-23T07:41:49.109Z,5.100
2023-03-23T07:42:49.385Z,4.800
2023-03-23T07:43:49.608Z,4.600
2023-03-23T07:44:49.884Z,5.000
2023-03-23T07:45:49.072Z,4.900
2023-03-23T07:46:49.405Z,5.000
2023-03-23T07:47:52.852Z,4.600
2023-03-23T07:49:53.577Z,4.700
2023-03-23T07:51:49.084Z,5.000
2023-03-23T07:52:52.180Z,5.200
2023-03-23T07:53:50.445Z,6.500
2023-03-23T07:54:49.723Z,8.200
2023-03-23T07:57:49.841Z,5.200
2023-03-23T07:58:49.226Z,4.800
2023-03-23T07:59:49.725Z,5.300
2023-03-23T08:00:48.886Z,5.100
2023-03-23T08:01:49.109Z,5.500
2023-03-23T08:02:54.025Z,4.700
2023-03-23T08:04:49.621Z,4.500
2023-03-23T08:05:48.864Z,5.400
2023-03-23T08:06:49.074Z,5.900
2023-03-23T08:07:54.213Z,4.900
2023-03-23T08:09:49.722Z,5.200
2023-03-23T08:10:50.890Z,5.300
2023-03-23T08:12:49.760Z,6.500
2023-03-23T08:13:49.090Z,5.300
2023-03-23T08:14:51.337Z,6.000
2023-03-23T08:15:49.497Z,5.300
2023-03-23T08:16:49.804Z,5.800
2023-03-23T08:17:48.996Z,6.400
2023-03-23T08:18:49.249Z,5.200
2023-03-23T08:19:49.469Z,5.300
2023-03-23T08:20:49.756Z,5.300
2023-03-23T08:21:48.905Z,5.500
2023-03-23T08:22:55.112Z,5.900
2023-03-23T08:24:49.520Z,6.600
2023-03-23T08:25:49.756Z,5.400
2023-03-23T08:26:49.405Z,5.800
2023-03-23T08:27:49.665Z,5.100
2023-03-23T08:28:51.466Z,5.500
2023-03-23T08:29:50.081Z,5.800
2023-03-23T08:30:49.303Z,6.100
2023-03-23T08:31:49.566Z,5.500
2023-03-23T08:32:49.741Z,6.100
2023-03-23T08:33:48.909Z,5.400
2023-03-23T08:34:49.945Z,5.400
2023-03-23T08:35:49.215Z,5.600
2023-03-23T08:36:49.596Z,5.400
2023-03-23T08:37:49.814Z,5.500
2023-03-23T08:38:49.382Z,5.800
2023-03-23T08:39:51.530Z,5.300
2023-03-23T08:40:50.703Z,6.100
2023-03-23T08:41:49.093Z,5.800
2023-03-23T08:43:01.123Z,5.400
2023-03-23T08:44:49.600Z,5.100
2023-03-23T08:45:49.684Z,4.900
2023-03-23T08:46:49.144Z,5.000
2023-03-23T08:47:49.369Z,5.700
2023-03-23T08:48:49.604Z,5.900
2023-03-23T08:49:49.885Z,5.900
2023-03-23T08:50:49.139Z,6.600
2023-03-23T08:51:49.393Z,5.800
2023-03-23T08:52:49.700Z,5.600
2023-03-23T08:53:49.764Z,5.100
2023-03-23T08:54:49.050Z,5.500
2023-03-23T08:55:49.332Z,5.100
2023-03-23T08:56:49.634Z,5.100
2023-03-23T08:57:48.833Z,5.000
2023-03-23T08:58:49.019Z,5.700
2023-03-23T08:59:49.473Z,5.200
2023-03-23T09:00:57.727Z,5.200
2023-03-23T09:03:49.705Z,5.700
2023-03-23T09:04:48.906Z,5.100
2023-03-23T09:05:49.066Z,5.000
2023-03-23T09:06:49.301Z,5.500
2023-03-23T09:07:49.589Z,5.400
2023-03-23T09:08:48.812Z,5.400
2023-03-23T09:09:50.223Z,5.000
2023-03-23T09:10:49.711Z,4.900
2023-03-23T09:13:49.433Z,5.400
2023-03-23T09:14:49.704Z,5.500
2023-03-23T09:15:59.056Z,5.200
2023-03-23T09:17:50.117Z,5.300
2023-03-23T09:18:49.260Z,5.100
2023-03-23T09:19:57.161Z,5.300
2023-03-23T09:21:54.541Z,5.200
2023-03-23T09:23:48.936Z,4.800
2023-03-23T09:24:49.228Z,4.600
2023-03-23T09:25:49.628Z,4.500
2023-03-23T09:26:49.868Z,4.700
2023-03-23T09:27:49.178Z,3.700
2023-03-23T09:28:49.436Z,4.600
2023-03-23T09:29:49.708Z,5.000
2023-03-23T09:30:55.396Z,4.400
2023-03-23T09:32:48.888Z,4.000
2023-03-23T09:33:50.165Z,4.700
2023-03-23T09:34:49.388Z,5.100
2023-03-23T09:35:49.720Z,4.600
2023-03-23T09:36:48.939Z,4.800
2023-03-23T09:37:50.394Z,4.800
2023-03-23T09:38:49.674Z,5.000
2023-03-23T09:40:06.641Z,4.600
2023-03-23T09:42:55.245Z,4.600
2023-03-23T09:44:53.321Z,4.900
2023-03-23T09:45:53.642Z,4.700
2023-03-23T09:46:52.958Z,5.100
2023-03-23T09:47:53.196Z,4.900
2023-03-23T09:48:53.610Z,5.200
2023-03-23T09:49:57.828Z,6.900
2023-03-23T09:51:53.298Z,16.500
2023-03-23T09:52:53.646Z,9.200
2023-03-23T09:53:52.929Z,5.900
2023-03-23T09:56:01.367Z,8.500
2023-03-23T09:57:00.481Z,7.600
2023-03-23T09:58:00.879Z,7.700
2023-03-23T09:59:00.355Z,7.100
2023-03-23T10:00:00.772Z,7.100
2023-03-23T10:01:01.465Z,5.900
2023-03-23T10:03:53.252Z,5.600
2023-03-23T10:04:53.488Z,5.300
2023-03-23T10:05:53.953Z,4.800
2023-03-23T10:06:53.841Z,4.900
2023-03-23T10:07:53.057Z,5.100
2023-03-23T10:09:00.509Z,6.400
2023-03-23T10:09:53.806Z,5.000
2023-03-23T10:11:53.238Z,5.600
2023-03-23T10:12:53.749Z,4.900
2023-03-23T10:13:53.009Z,5.300
2023-03-23T10:14:53.354Z,5.100
2023-03-23T10:15:53.661Z,4.800
2023-03-23T10:16:53.030Z,5.300
2023-03-23T10:17:53.506Z,5.500
2023-03-23T10:18:53.937Z,4.700
2023-03-23T10:19:53.154Z,4.800
2023-03-23T10:20:53.604Z,5.400
2023-03-23T10:21:53.824Z,4.900
2023-03-23T10:22:53.049Z,4.900
2023-03-23T10:23:53.285Z,4.800
2023-03-23T10:24:53.594Z,5.000
2023-03-23T10:25:52.884Z,4.800
2023-03-23T10:26:53.188Z,4.700
2023-03-23T10:27:53.452Z,5.000
2023-03-23T10:28:53.772Z,5.400
2023-03-23T10:29:53.044Z,5.200
2023-03-23T10:30:53.441Z,5.100
2023-03-23T10:31:53.684Z,4.800
2023-03-23T10:32:52.897Z,4.600
2023-03-23T10:33:53.140Z,4.500
2023-03-23T10:34:53.486Z,4.200
2023-03-23T10:35:54.166Z,4.700
2023-03-23T10:36:53.438Z,4.600
2023-03-23T10:37:53.713Z,4.100
2023-03-23T10:38:53.205Z,4.400
2023-03-23T10:39:53.493Z,4.100
2023-03-23T10:40:58.473Z,4.000
2023-03-23T10:42:53.153Z,4.200
2023-03-23T10:43:53.536Z,4.200
2023-03-23T10:44:53.813Z,4.500
2023-03-23T10:46:02.373Z,4.500
2023-03-23T10:47:06.466Z,4.600
2023-03-23T10:48:54.730Z,4.400
2023-03-23T10:49:54.021Z,4.000
2023-03-23T10:50:54.320Z,3.700
2023-03-23T10:51:54.637Z,3.900
2023-03-23T10:52:53.783Z,4.200
2023-03-23T10:53:54.092Z,3.700
2023-03-23T10:54:54.412Z,3.700
2023-03-23T10:55:54.617Z,3.600
2023-03-23T10:57:06.812Z,3.700
2023-03-23T10:59:55.524Z,3.800
2023-03-23T11:00:56.377Z,3.600
2023-03-23T11:01:55.705Z,3.100
2023-03-23T11:02:59.924Z,2.700
2023-03-23T11:04:55.500Z,2.900
2023-03-23T11:05:56.530Z,2.600
2023-03-23T11:06:55.874Z,2.400
2023-03-23T11:07:55.073Z,2.500
2023-03-23T11:08:55.343Z,2.500
2023-03-23T11:09:55.594Z,2.800
2023-03-23T11:10:56.393Z,2.600
2023-03-23T11:12:02.221Z,2.800
2023-03-23T11:12:55.534Z,2.200
2023-03-23T11:13:55.757Z,2.000
2023-03-23T11:16:57.717Z,2.400
2023-03-23T11:17:55.645Z,2.200
2023-03-23T11:18:55.098Z,2.400
2023-03-23T11:19:55.293Z,2.000
2023-03-23T11:20:55.562Z,2.400
2023-03-23T11:21:55.795Z,2.400
2023-03-23T11:22:55.401Z,2.400
2023-03-23T11:24:09.826Z,2.100
2023-03-23T11:25:58.748Z,2.400
2023-03-23T11:27:07.780Z,2.500
2023-03-23T11:28:58.354Z,2.800
2023-03-23T11:30:01.694Z,2.400
2023-03-23T11:31:58.036Z,2.500
2023-03-23T11:32:58.287Z,2.600
2023-03-23T11:34:07.901Z,2.400
2023-03-23T11:35:16.103Z,2.600
2023-03-23T11:37:02.038Z,2.500
2023-03-23T11:39:00.517Z,2.500
2023-03-23T11:40:00.768Z,2.300
2023-03-23T11:41:00.120Z,2.200
2023-03-23T11:42:10.150Z,2.600
2023-03-23T11:44:00.606Z,3.000
2023-03-23T11:44:59.845Z,2.600
2023-03-23T11:46:00.659Z,2.500
2023-03-23T11:46:59.929Z,2.400
2023-03-23T11:48:00.132Z,2.600
2023-03-23T11:49:00.437Z,2.400
2023-03-23T11:50:02.669Z,2.800
2023-03-23T11:50:59.848Z,2.800
2023-03-23T11:52:00.123Z,3.000
2023-03-23T11:53:00.316Z,2.800
2023-03-23T11:54:00.579Z,2.500
2023-03-23T11:55:02.072Z,2.800
2023-03-23T11:56:00.864Z,2.800
2023-03-23T11:57:00.140Z,2.800
2023-03-23T11:58:00.389Z,2.600
2023-03-23T11:59:00.634Z,2.500
2023-03-23T11:59:59.948Z,2.800
2023-03-23T12:01:00.280Z,2.900
2023-03-23T12:02:16.830Z,2.800
2023-03-23T12:04:03.563Z,2.600
2023-03-23T12:05:04.729Z,2.300
2023-03-23T12:06:02.976Z,3.500
2023-03-23T12:07:04.911Z,2.700
2023-03-23T12:08:03.137Z,2.300
2023-03-23T12:09:03.477Z,2.900
2023-03-23T12:10:03.781Z,2.800
2023-03-23T12:11:09.717Z,3.000
2023-03-23T12:14:10.333Z,3.200
2023-03-23T12:15:08.381Z,3.000
2023-03-23T12:17:03.305Z,3.100
2023-03-23T12:18:03.787Z,3.100
2023-03-23T12:19:03.133Z,2.500
2023-03-23T12:20:03.431Z,3.100
2023-03-23T12:21:14.425Z,3.100
2023-03-23T12:23:03.219Z,2.900
2023-03-23T12:24:07.655Z,2.800
2023-03-23T12:27:03.792Z,3.100
2023-03-23T12:28:03.020Z,2.700
2023-03-23T12:29:03.277Z,3.000
2023-03-23T12:30:03.515Z,3.400
2023-03-23T12:31:03.741Z,3.300
2023-03-23T12:32:02.915Z,2.500
2023-03-23T12:33:03.122Z,2.600
2023-03-23T12:34:03.541Z,2.800
2023-03-23T12:35:03.869Z,4.000
2023-03-23T12:36:03.551Z,4.500
2023-03-23T12:37:03.933Z,3.400
2023-03-23T12:38:03.197Z,3.200
2023-03-23T12:39:03.484Z,2.600
2023-03-23T12:40:03.806Z,2.700
2023-03-23T12:41:05.428Z,3.000
2023-03-23T12:42:03.730Z,2.700
2023-03-23T12:44:03.195Z,2.400
2023-03-23T12:45:03.492Z,2.500
2023-03-23T12:46:04.124Z,2.800
2023-03-23T12:47:03.350Z,2.500
2023-03-23T12:48:03.655Z,2.400
2023-03-23T12:49:02.863Z,2.400
2023-03-23T12:50:03.126Z,2.200
2023-03-23T12:51:03.428Z,2.600
2023-03-23T12:52:03.687Z,2.700
2023-03-23T12:53:02.917Z,2.300
2023-03-23T12:54:03.240Z,2.800
2023-03-23T12:55:03.524Z,2.800
2023-03-23T12:56:03.969Z,2.300
2023-03-23T12:57:03.323Z,2.500
2023-03-23T12:58:03.567Z,2.300
2023-03-23T12:59:04.676Z,2.300
2023-03-23T13:00:02.934Z,2.300
2023-03-23T13:01:03.236Z,2.300
2023-03-23T13:02:03.536Z,2.300
2023-03-23T13:03:03.825Z,2.300
2023-03-23T13:04:03.250Z,2.700
2023-03-23T13:05:03.512Z,2.100
2023-03-23T13:06:03.757Z,2.400
2023-03-23T13:07:03.039Z,2.300
2023-03-23T13:08:03.333Z,2.400
2023-03-23T13:09:03.685Z,2.300
2023-03-23T13:10:03.418Z,2.400
2023-03-23T13:11:03.089Z,2.200
2023-03-23T13:12:03.484Z,2.200
2023-03-23T13:13:03.749Z,2.600
2023-03-23T13:14:12.505Z,2.500
2023-03-23T13:16:03.240Z,2.500
2023-03-23T13:17:03.469Z,2.500
2023-03-23T13:18:03.756Z,2.400
2023-03-23T13:19:03.004Z,2.300
2023-03-23T13:20:03.311Z,2.300
2023-03-23T13:21:03.588Z,2.100
2023-03-23T13:22:10.581Z,2.000
2023-03-23T13:24:03.105Z,2.100
2023-03-23T13:25:06.551Z,2.700
2023-03-23T13:26:03.708Z,2.500
2023-03-23T13:27:02.927Z,2.100
2023-03-23T13:28:03.108Z,2.400
2023-03-23T13:29:03.304Z,2.200
2023-03-23T13:30:03.587Z,2.400
2023-03-23T13:31:03.780Z,2.300
2023-03-23T13:32:03.115Z,2.300
2023-03-23T13:33:13.189Z,2.100
2023-03-23T13:35:03.773Z,2.200
2023-03-23T13:36:10.603Z,2.300
2023-03-23T13:37:04.127Z,2.200
2023-03-23T13:40:04.073Z,2.700
2023-03-23T13:41:03.501Z,2.700
2023-03-23T13:42:03.857Z,2.200
2023-03-23T13:43:03.178Z,2.500
2023-03-23T13:44:03.394Z,2.200
2023-03-23T13:45:03.585Z,2.400
2023-03-23T13:46:04.139Z,2.300
2023-03-23T13:47:03.340Z,2.700
2023-03-23T13:48:03.544Z,2.300
2023-03-23T13:49:16.272Z,2.400
2023-03-23T13:51:04.788Z,2.300
2023-03-23T13:52:04.144Z,2.700
2023-03-23T13:53:04.656Z,2.700
2023-03-23T13:54:03.945Z,3.200
2023-03-23T13:55:04.216Z,3.000
2023-03-23T13:58:04.223Z,2.700
2023-03-23T13:59:06.436Z,2.900
2023-03-23T14:00:04.576Z,3.000
2023-03-23T14:02:04.195Z,3.000
2023-03-23T14:03:04.418Z,2.900
2023-03-23T14:04:04.717Z,3.000
2023-03-23T14:05:03.926Z,3.000
2023-03-23T14:06:04.232Z,2.500
2023-03-23T14:07:04.546Z,2.700
2023-03-23T14:08:04.779Z,3.000
2023-03-23T14:09:04.013Z,3.100
2023-03-23T14:10:04.261Z,3.000
2023-03-23T14:11:04.522Z,3.300
2023-03-23T14:12:04.756Z,3.100
2023-03-23T14:13:03.917Z,2.900
2023-03-23T14:14:04.132Z,2.800
2023-03-23T14:15:04.352Z,3.200
2023-03-23T14:16:04.937Z,3.200
2023-03-23T14:17:04.099Z,3.100
2023-03-23T14:18:04.360Z,2.600
2023-03-23T14:19:04.575Z,2.800
2023-03-23T14:20:04.832Z,3.200
2023-03-23T14:21:04.063Z,2.800
2023-03-23T14:22:04.197Z,3.100
2023-03-23T14:23:04.400Z,2.800
2023-03-23T14:24:04.624Z,3.500
2023-03-23T14:25:03.859Z,3.800
2023-03-23T14:26:04.414Z,3.700
2023-03-23T14:27:04.680Z,3.200
2023-03-23T14:28:04.168Z,2.900
2023-03-23T14:29:04.513Z,2.900
2023-03-23T14:30:04.813Z,3.600
2023-03-23T14:31:04.068Z,3.200
2023-03-23T14:32:04.247Z,3.500
2023-03-23T14:33:04.746Z,3.100
2023-03-23T14:34:04.045Z,3.700
2023-03-23T14:35:04.283Z,3.300
2023-03-23T14:36:04.506Z,3.500
2023-03-23T14:37:04.912Z,3.200
2023-03-23T14:38:04.110Z,3.200
2023-03-23T14:39:04.357Z,3.700
2023-03-23T14:40:04.652Z,3.400
2023-03-23T14:41:04.141Z,3.700
2023-03-23T14:42:04.617Z,3.300